Aurora, NC

2:19 PM EDT on September 01, 2015 (GMT -0400)
S.W.Snowden Elementary School | | Change Station
CLOSE
Current Station
Personal Weather Station
Location: Aurora, NC
Elevation: 36 ft
Nearby Weather Stations

Elev 36 ft 35.31 °N, 76.79 °W | Updated 10 minutes ago

Partly Cloudy
Partly Cloudy
83.8 °F
Feels Like 91 °F
N
2.0
Wind Variable Wind from West
Gusts 6.0 mph

Today
High -- | Low -- °F
--% Chance of Precip.
Yesterday
High -- | Low -- °F
Precip. -- in
6:39 AM 7:34 PM
Waning Gibbous, 87% visible
Pressure 30.09 in
Visibility 10.0 miles
Clouds Few 2300 ft
Overcast 4900 ft
Heat Index 91 °F
Dew Point 74 °F
Humidity 73%
Rainfall 0.18 in
Snow Depth Not available.
UV 7.2 out of 12
Pollen 8.70 out of 12
Air Quality Not available.
Flu Activity Not available.
METAR KEWN 011754Z VRB05KT 10SM FEW023 OVC049 28/21 A3008 RMK AO2 SLP187 T02780211 10289 20244 57015
Pressure 30.09 in
Visibility 10.0 miles
Clouds Few 2300 ft
Overcast 4900 ft
Heat Index 91 °F
Dew Point 74 °F
Humidity 73%
Rainfall 0.18 in
Snow Depth Not available.
UV 7.2 out of 12
Pollen 8.70 out of 12
Air Quality Not available.
Flu Activity Not available.
METAR KEWN 011754Z VRB05KT 10SM FEW023 OVC049 28/21 A3008 RMK AO2 SLP187 T02780211 10289 20244 57015

10-Day Weather Forecast

×

Almanac

Astronomy

Sep. 01, 2015 Rise Set
Actual Time
Civil Twilight
Nautical Twilight
Astronomical Twilight
Moon
Length of Visible Light
Length of Day
Tomorrow will be .
, % of the Moon is Illuminated

Today's Extremes

State Highs State Lows

Community

WunderPhotos

Upload Photos

1,851,592 photos uploaded!

WunderBlogs® & News

Nearby

Air Quality

  Air Quality AQ Index Pollutant
Not available.

Snow Depth

Station Depth Elevation

Earthquake Activity

City Distance Mag. Time & Date
Minimum magnitude displayed is 2.5.

Coastal Water Temperatures

Place Temperature

Stations

Nearby Weather Stations

Station Location Temp. Windchill Dew Point Humidity Wind Precip. Elev Updated Type